createdAt,value
2023-04-09T00:14:43.238Z,75.09
2023-04-09T01:00:39.292Z,75.15
2023-04-09T01:31:18.623Z,75.09
2023-04-09T01:46:25.713Z,75.11
2023-04-09T02:01:54.363Z,74.98
2023-04-09T02:32:30.455Z,75.24
2023-04-09T03:02:53.503Z,75.10
2023-04-09T03:17:57.806Z,75.08
2023-04-09T03:33:02.243Z,75.40
2023-04-09T03:48:06.714Z,75.25
2023-04-09T04:18:31.101Z,75.98
2023-04-09T04:33:35.678Z,76.57
2023-04-09T04:48:54.388Z,76.94
2023-04-09T05:03:59.415Z,77.19
2023-04-09T05:19:17.857Z,77.01
2023-04-09T05:34:22.051Z,77.64
2023-04-09T05:49:26.667Z,77.67
2023-04-09T06:04:32.758Z,78.08
2023-04-09T06:19:37.465Z,78.09
2023-04-09T06:34:41.945Z,78.96
2023-04-09T06:49:46.064Z,79.91
2023-04-09T07:04:51.336Z,80.77
2023-04-09T07:19:55.746Z,81.13
2023-04-09T07:35:00.169Z,80.81
2023-04-09T07:50:05.372Z,80.75
2023-04-09T08:05:24.867Z,80.39
2023-04-09T08:20:29.677Z,80.04
2023-04-09T08:35:34.221Z,79.73
2023-04-09T08:50:52.700Z,79.29
2023-04-09T09:06:23.299Z,78.98
2023-04-09T09:21:41.076Z,79.12
2023-04-09T09:36:59.403Z,79.09
2023-04-09T09:52:10.257Z,78.50
2023-04-09T10:07:16.352Z,77.85
2023-04-09T10:22:36.610Z,77.43
2023-04-09T10:53:24.146Z,77.24
2023-04-09T11:08:45.375Z,76.63
2023-04-09T11:39:28.333Z,75.01
2023-04-09T11:55:31.849Z,73.82
2023-04-09T12:10:37.705Z,73.68
2023-04-09T12:25:43.554Z,73.54
2023-04-09T12:40:46.540Z,73.44
2023-04-09T12:55:49.099Z,73.31
2023-04-09T13:11:06.584Z,72.73
2023-04-09T13:26:23.751Z,72.68
2023-04-09T13:41:41.242Z,72.49
2023-04-09T13:56:45.784Z,72.48
2023-04-09T14:11:49.457Z,72.32
2023-04-09T14:26:52.706Z,72.24
2023-04-09T14:41:56.500Z,72.31
2023-04-09T14:56:59.186Z,72.50
2023-04-09T15:12:02.883Z,72.47
2023-04-09T15:27:05.983Z,72.49
2023-04-09T15:42:10.649Z,72.35
2023-04-09T15:57:14.772Z,72.02
2023-04-09T16:27:35.332Z,72.25
2023-04-09T16:42:37.860Z,72.66
2023-04-09T16:57:41.171Z,72.91
2023-04-09T17:12:44.405Z,72.93
2023-04-09T17:27:46.979Z,73.20
2023-04-09T17:43:04.056Z,73.46
2023-04-09T17:58:06.733Z,73.64
2023-04-09T19:44:34.104Z,75.48
2023-04-09T19:59:40.188Z,75.79
2023-04-09T20:14:44.775Z,76.08
2023-04-09T20:29:50.358Z,75.92
2023-04-09T20:44:57.149Z,75.60
2023-04-09T21:00:02.290Z,75.72
2023-04-09T21:15:08.064Z,75.85
2023-04-09T21:30:15.998Z,75.68
2023-04-09T21:45:22.651Z,76.13
2023-04-09T22:00:26.991Z,76.16
2023-04-09T22:15:32.067Z,75.39
2023-04-09T22:30:36.752Z,74.95
2023-04-09T22:45:41.299Z,74.92
2023-04-09T23:00:45.480Z,75.65
2023-04-09T23:15:49.788Z,76.21
2023-04-09T23:30:54.341Z,76.04
2023-04-09T23:45:59.524Z,76.22
